sensor_id;sensor_type;location;lat;lon;timestamp;pressure;altitude;pressure_sealevel;temperature;humidity
48200;BME280;33990;44.602;10.976;2023-11-21T00:01:33;100528.94;;;20.81;46.07
48200;BME280;33990;44.602;10.976;2023-11-21T00:04:01;100521.00;;;20.80;46.24
48200;BME280;33990;44.602;10.976;2023-11-21T00:06:28;100523.84;;;20.78;46.09
48200;BME280;33990;44.602;10.976;2023-11-21T00:08:57;100516.75;;;20.77;46.09
48200;BME280;33990;44.602;10.976;2023-11-21T00:11:24;100514.25;;;20.76;46.02
48200;BME280;33990;44.602;10.976;2023-11-21T00:13:52;100512.56;;;20.74;45.97
48200;BME280;33990;44.602;10.976;2023-11-21T00:16:20;100500.06;;;20.73;46.14
48200;BME280;33990;44.602;10.976;2023-11-21T00:18:49;100508.97;;;20.74;46.20
48200;BME280;33990;44.602;10.976;2023-11-21T00:21:16;100507.31;;;20.73;46.22
48200;BME280;33990;44.602;10.976;2023-11-21T00:23:44;100503.78;;;20.72;46.30
48200;BME280;33990;44.602;10.976;2023-11-21T00:26:11;100498.38;;;20.72;46.38
48200;BME280;33990;44.602;10.976;2023-11-21T00:28:39;100507.47;;;20.71;46.31
48200;BME280;33990;44.602;10.976;2023-11-21T00:31:07;100504.91;;;20.70;46.25
48200;BME280;33990;44.602;10.976;2023-11-21T00:33:34;100503.38;;;20.67;46.37
48200;BME280;33990;44.602;10.976;2023-11-21T00:36:02;100499.00;;;20.66;46.34
48200;BME280;33990;44.602;10.976;2023-11-21T00:38:29;100489.94;;;20.67;46.31
48200;BME280;33990;44.602;10.976;2023-11-21T00:40:58;100484.53;;;20.67;46.37
48200;BME280;33990;44.602;10.976;2023-11-21T00:43:26;100484.53;;;20.67;46.39
48200;BME280;33990;44.602;10.976;2023-11-21T00:45:53;100495.44;;;20.66;46.40
48200;BME280;33990;44.602;10.976;2023-11-21T00:48:20;100483.00;;;20.65;46.36
48200;BME280;33990;44.602;10.976;2023-11-21T00:50:48;100483.16;;;20.63;46.43
48200;BME280;33990;44.602;10.976;2023-11-21T00:53:15;100465.47;;;20.61;46.44
48200;BME280;33990;44.602;10.976;2023-11-21T00:55:43;100458.38;;;20.60;46.62
48200;BME280;33990;44.602;10.976;2023-11-21T00:58:10;100447.78;;;20.58;46.57
48200;BME280;33990;44.602;10.976;2023-11-21T01:00:37;100454.16;;;20.57;46.58
48200;BME280;33990;44.602;10.976;2023-11-21T01:03:06;100448.75;;;20.57;46.60
48200;BME280;33990;44.602;10.976;2023-11-21T01:05:35;100431.09;;;20.55;46.49
48200;BME280;33990;44.602;10.976;2023-11-21T01:08:02;100429.38;;;20.54;46.51
48200;BME280;33990;44.602;10.976;2023-11-21T01:10:30;100416.09;;;20.52;46.75
48200;BME280;33990;44.602;10.976;2023-11-21T01:12:57;100398.28;;;20.51;46.52
48200;BME280;33990;44.602;10.976;2023-11-21T01:15:25;100398.28;;;20.51;46.59
48200;BME280;33990;44.602;10.976;2023-11-21T01:17:53;100381.44;;;20.49;46.76
48200;BME280;33990;44.602;10.976;2023-11-21T01:20:20;100377.91;;;20.48;46.58
48200;BME280;33990;44.602;10.976;2023-11-21T01:22:48;100365.44;;;20.47;46.69
48200;BME280;33990;44.602;10.976;2023-11-21T01:25:16;100351.28;;;20.45;46.62
48200;BME280;33990;44.602;10.976;2023-11-21T01:27:44;100360.22;;;20.46;46.76
48200;BME280;33990;44.602;10.976;2023-11-21T01:30:11;100376.34;;;20.46;46.62
48200;BME280;33990;44.602;10.976;2023-11-21T01:32:39;100378.34;;;20.44;46.61
48200;BME280;33990;44.602;10.976;2023-11-21T01:35:07;100398.00;;;20.44;46.77
48200;BME280;33990;44.602;10.976;2023-11-21T01:37:37;100407.06;;;20.43;46.72
48200;BME280;33990;44.602;10.976;2023-11-21T01:40:05;100417.81;;;20.43;46.54
48200;BME280;33990;44.602;10.976;2023-11-21T01:42:42;100433.25;;;20.41;46.49
48200;BME280;33990;44.602;10.976;2023-11-21T01:45:10;100432.41;;;20.41;46.50
48200;BME280;33990;44.602;10.976;2023-11-21T01:47:41;100437.09;;;20.39;46.43
48200;BME280;33990;44.602;10.976;2023-11-21T01:50:12;100423.66;;;20.39;46.40
48200;BME280;33990;44.602;10.976;2023-11-21T01:52:40;100422.81;;;20.38;46.44
48200;BME280;33990;44.602;10.976;2023-11-21T01:55:08;100438.09;;;20.38;46.48
48200;BME280;33990;44.602;10.976;2023-11-21T01:57:36;100430.16;;;20.36;46.55
48200;BME280;33990;44.602;10.976;2023-11-21T02:00:07;100439.22;;;20.35;46.38
48200;BME280;33990;44.602;10.976;2023-11-21T02:02:47;100436.69;;;20.34;46.58
48200;BME280;33990;44.602;10.976;2023-11-21T02:05:16;100433.13;;;20.33;46.43
48200;BME280;33990;44.602;10.976;2023-11-21T02:07:47;100424.22;;;20.33;46.51
48200;BME280;33990;44.602;10.976;2023-11-21T02:10:20;100419.00;;;20.31;46.50
48200;BME280;33990;44.602;10.976;2023-11-21T02:12:51;100421.69;;;20.31;46.56
48200;BME280;33990;44.602;10.976;2023-11-21T02:15:20;100428.06;;;20.30;46.61
48200;BME280;33990;44.602;10.976;2023-11-21T02:17:50;100418.28;;;20.29;46.66
48200;BME280;33990;44.602;10.976;2023-11-21T02:20:21;100408.41;;;20.30;46.53
48200;BME280;33990;44.602;10.976;2023-11-21T02:22:57;100404.84;;;20.29;46.72
48200;BME280;33990;44.602;10.976;2023-11-21T02:25:30;100412.06;;;20.29;46.78
48200;BME280;33990;44.602;10.976;2023-11-21T02:28:00;100414.94;;;20.27;46.56
48200;BME280;33990;44.602;10.976;2023-11-21T02:30:30;100420.31;;;20.27;46.66
48200;BME280;33990;44.602;10.976;2023-11-21T02:33:01;100422.16;;;20.27;46.71
48200;BME280;33990;44.602;10.976;2023-11-21T02:35:29;100415.09;;;20.25;46.80
48200;BME280;33990;44.602;10.976;2023-11-21T02:37:59;100399.81;;;20.26;46.85
48200;BME280;33990;44.602;10.976;2023-11-21T02:40:26;100384.63;;;20.25;46.77
48200;BME280;33990;44.602;10.976;2023-11-21T02:42:54;100377.59;;;20.24;46.83
48200;BME280;33990;44.602;10.976;2023-11-21T02:45:22;100378.59;;;20.23;47.06
48200;BME280;33990;44.602;10.976;2023-11-21T02:47:51;100390.19;;;20.23;47.01
48200;BME280;33990;44.602;10.976;2023-11-21T02:50:21;100392.88;;;20.23;47.02
48200;BME280;33990;44.602;10.976;2023-11-21T02:52:51;100397.41;;;20.23;47.19
48200;BME280;33990;44.602;10.976;2023-11-21T02:55:20;100395.56;;;20.23;47.08
48200;BME280;33990;44.602;10.976;2023-11-21T02:57:47;100393.88;;;20.22;47.41
48200;BME280;33990;44.602;10.976;2023-11-21T03:00:15;100392.16;;;20.21;47.41
48200;BME280;33990;44.602;10.976;2023-11-21T03:02:44;100394.84;;;20.21;47.27
48200;BME280;33990;44.602;10.976;2023-11-21T03:05:11;100392.31;;;20.20;47.39
48200;BME280;33990;44.602;10.976;2023-11-21T03:07:39;100385.09;;;20.20;47.40
48200;BME280;33990;44.602;10.976;2023-11-21T03:10:08;100380.56;;;20.21;47.57
48200;BME280;33990;44.602;10.976;2023-11-21T03:12:37;100376.34;;;20.18;47.44
48200;BME280;33990;44.602;10.976;2023-11-21T03:15:06;100376.34;;;20.18;47.62
48200;BME280;33990;44.602;10.976;2023-11-21T03:17:34;100377.31;;;20.17;47.46
48200;BME280;33990;44.602;10.976;2023-11-21T03:20:03;100378.31;;;20.16;47.46
48200;BME280;33990;44.602;10.976;2023-11-21T03:22:31;100383.69;;;20.16;47.56
48200;BME280;33990;44.602;10.976;2023-11-21T03:24:59;100371.25;;;20.15;47.53
48200;BME280;33990;44.602;10.976;2023-11-21T03:27:26;100370.41;;;20.15;47.49
48200;BME280;33990;44.602;10.976;2023-11-21T03:29:54;100367.72;;;20.15;47.64
48200;BME280;33990;44.602;10.976;2023-11-21T03:32:22;100361.63;;;20.13;47.47
48200;BME280;33990;44.602;10.976;2023-11-21T03:34:54;100364.19;;;20.14;47.55
48200;BME280;33990;44.602;10.976;2023-11-21T03:37:26;100367.00;;;20.13;47.62
48200;BME280;33990;44.602;10.976;2023-11-21T03:39:56;100359.97;;;20.12;47.63
48200;BME280;33990;44.602;10.976;2023-11-21T03:42:24;100368.03;;;20.12;47.63
48200;BME280;33990;44.602;10.976;2023-11-21T03:44:54;100369.88;;;20.11;47.68
48200;BME280;33990;44.602;10.976;2023-11-21T03:47:22;100369.03;;;20.11;47.68
48200;BME280;33990;44.602;10.976;2023-11-21T03:49:49;100374.41;;;20.11;47.78
48200;BME280;33990;44.602;10.976;2023-11-21T03:52:17;100366.47;;;20.09;47.81
48200;BME280;33990;44.602;10.976;2023-11-21T03:54:44;100365.63;;;20.09;47.73
48200;BME280;33990;44.602;10.976;2023-11-21T03:57:12;100364.78;;;20.08;47.78
48200;BME280;33990;44.602;10.976;2023-11-21T03:59:40;100366.63;;;20.08;47.69
48200;BME280;33990;44.602;10.976;2023-11-21T04:02:08;100363.09;;;20.07;47.88
48200;BME280;33990;44.602;10.976;2023-11-21T04:04:36;100356.88;;;20.07;47.87
48200;BME280;33990;44.602;10.976;2023-11-21T04:07:04;100356.88;;;20.07;47.90
48200;BME280;33990;44.602;10.976;2023-11-21T04:09:32;100365.06;;;20.05;47.95
48200;BME280;33990;44.602;10.976;2023-11-21T04:11:59;100365.06;;;20.05;47.96
48200;BME280;33990;44.602;10.976;2023-11-21T04:14:27;100388.28;;;20.06;48.00
48200;BME280;33990;44.602;10.976;2023-11-21T04:16:54;100391.94;;;20.05;47.84
48200;BME280;33990;44.602;10.976;2023-11-21T04:19:22;100388.41;;;20.05;48.02
48200;BME280;33990;44.602;10.976;2023-11-21T04:21:49;100375.97;;;20.04;48.01
48200;BME280;33990;44.602;10.976;2023-11-21T04:24:17;100365.38;;;20.02;48.03
48200;BME280;33990;44.602;10.976;2023-11-21T04:26:44;100368.06;;;20.02;47.92
48200;BME280;33990;44.602;10.976;2023-11-21T04:29:12;100374.41;;;20.01;48.12
48200;BME280;33990;44.602;10.976;2023-11-21T04:31:39;100363.66;;;20.01;48.06
48200;BME280;33990;44.602;10.976;2023-11-21T04:34:07;100355.59;;;20.01;48.09
48200;BME280;33990;44.602;10.976;2023-11-21T04:36:35;100355.59;;;20.01;48.11
48200;BME280;33990;44.602;10.976;2023-11-21T04:39:02;100357.31;;;20.02;48.00
48200;BME280;33990;44.602;10.976;2023-11-21T04:41:30;100348.56;;;20.00;47.92
48200;BME280;33990;44.602;10.976;2023-11-21T04:43:59;100351.22;;;20.00;48.07
48200;BME280;33990;44.602;10.976;2023-11-21T04:46:28;100348.72;;;19.98;47.99
48200;BME280;33990;44.602;10.976;2023-11-21T04:48:55;100345.19;;;19.98;48.07
48200;BME280;33990;44.602;10.976;2023-11-21T04:51:23;100345.19;;;19.98;47.99
48200;BME280;33990;44.602;10.976;2023-11-21T04:53:50;100346.16;;;19.97;48.12
48200;BME280;33990;44.602;10.976;2023-11-21T04:56:17;100349.72;;;19.97;48.02
48200;BME280;33990;44.602;10.976;2023-11-21T04:58:45;100343.47;;;19.97;48.29
48200;BME280;33990;44.602;10.976;2023-11-21T05:01:12;100350.69;;;19.96;48.20
48200;BME280;33990;44.602;10.976;2023-11-21T05:03:41;100351.69;;;19.95;48.31
48200;BME280;33990;44.602;10.976;2023-11-21T05:06:11;100348.16;;;19.95;48.31
48200;BME280;33990;44.602;10.976;2023-11-21T05:08:38;100340.94;;;19.95;48.38
48200;BME280;33990;44.602;10.976;2023-11-21T05:11:06;100340.94;;;19.95;48.11
48200;BME280;33990;44.602;10.976;2023-11-21T05:13:38;100341.09;;;19.94;48.39
48200;BME280;33990;44.602;10.976;2023-11-21T05:16:06;100346.47;;;19.94;48.35
48200;BME280;33990;44.602;10.976;2023-11-21T05:18:34;100342.06;;;19.93;48.52
48200;BME280;33990;44.602;10.976;2023-11-21T05:21:02;100347.31;;;19.94;48.51
48200;BME280;33990;44.602;10.976;2023-11-21T05:23:29;100357.34;;;19.92;48.35
48200;BME280;33990;44.602;10.976;2023-11-21T05:25:56;100362.59;;;19.94;48.43
48200;BME280;33990;44.602;10.976;2023-11-21T05:28:24;100361.88;;;19.92;48.47
48200;BME280;33990;44.602;10.976;2023-11-21T05:30:51;100358.34;;;19.91;48.33
48200;BME280;33990;44.602;10.976;2023-11-21T05:33:40;100362.88;;;19.91;48.47
48200;BME280;33990;44.602;10.976;2023-11-21T05:36:08;100366.56;;;19.90;48.43
48200;BME280;33990;44.602;10.976;2023-11-21T05:38:37;100373.63;;;19.91;48.42
48200;BME280;33990;44.602;10.976;2023-11-21T05:41:04;100369.25;;;19.90;48.51
48200;BME280;33990;44.602;10.976;2023-11-21T05:43:31;100371.09;;;19.89;48.40
48200;BME280;33990;44.602;10.976;2023-11-21T05:46:02;100363.03;;;19.89;48.65
48200;BME280;33990;44.602;10.976;2023-11-21T05:48:30;100369.25;;;19.90;48.52
48200;BME280;33990;44.602;10.976;2023-11-21T05:50:57;100354.81;;;19.91;48.77
48200;BME280;33990;44.602;10.976;2023-11-21T05:53:26;100349.44;;;19.91;48.75
48200;BME280;33990;44.602;10.976;2023-11-21T05:55:53;100346.75;;;19.91;48.79
48200;BME280;33990;44.602;10.976;2023-11-21T05:58:20;100344.91;;;19.91;48.88
48200;BME280;33990;44.602;10.976;2023-11-21T06:00:48;100337.00;;;19.90;48.95
48200;BME280;33990;44.602;10.976;2023-11-21T06:03:15;100340.66;;;19.89;48.85
48200;BME280;33990;44.602;10.976;2023-11-21T06:05:44;100338.97;;;19.88;48.71
48200;BME280;33990;44.602;10.976;2023-11-21T06:08:12;100339.81;;;19.88;48.93
48200;BME280;33990;44.602;10.976;2023-11-21T06:10:39;100341.00;;;19.86;48.73
48200;BME280;33990;44.602;10.976;2023-11-21T06:13:06;100341.00;;;19.86;48.90
48200;BME280;33990;44.602;10.976;2023-11-21T06:15:35;100328.53;;;19.85;48.79
48200;BME280;33990;44.602;10.976;2023-11-21T06:18:02;100327.56;;;19.86;48.99
48200;BME280;33990;44.602;10.976;2023-11-21T06:20:30;100325.84;;;19.85;48.82
48200;BME280;33990;44.602;10.976;2023-11-21T06:22:57;100324.16;;;19.84;48.92
48200;BME280;33990;44.602;10.976;2023-11-21T06:25:25;100329.53;;;19.84;48.92
48200;BME280;33990;44.602;10.976;2023-11-21T06:27:52;100328.69;;;19.83;48.83
48200;BME280;33990;44.602;10.976;2023-11-21T06:30:21;100329.69;;;19.82;48.89
48200;BME280;33990;44.602;10.976;2023-11-21T06:32:48;100327.84;;;19.83;48.99
48200;BME280;33990;44.602;10.976;2023-11-21T06:35:17;100328.84;;;19.82;48.95
48200;BME280;33990;44.602;10.976;2023-11-21T06:37:45;100321.75;;;19.81;48.86
48200;BME280;33990;44.602;10.976;2023-11-21T06:40:18;100319.06;;;19.81;48.92
48200;BME280;33990;44.602;10.976;2023-11-21T06:42:46;100316.38;;;19.81;48.89
48200;BME280;33990;44.602;10.976;2023-11-21T06:45:15;100323.59;;;19.80;48.89
48200;BME280;33990;44.602;10.976;2023-11-21T06:47:43;100329.13;;;19.79;48.96
48200;BME280;33990;44.602;10.976;2023-11-21T06:50:11;100334.50;;;19.79;49.05
48200;BME280;33990;44.602;10.976;2023-11-21T06:52:39;100324.59;;;19.79;49.02
48200;BME280;33990;44.602;10.976;2023-11-21T06:55:07;100321.06;;;19.79;49.08
48200;BME280;33990;44.602;10.976;2023-11-21T06:57:38;100314.00;;;19.78;48.97
48200;BME280;33990;44.602;10.976;2023-11-21T07:00:06;100312.31;;;19.76;49.14
48200;BME280;33990;44.602;10.976;2023-11-21T07:02:36;100318.53;;;19.77;49.10
48200;BME280;33990;44.602;10.976;2023-11-21T07:05:04;100323.91;;;19.77;48.89
48200;BME280;33990;44.602;10.976;2023-11-21T07:07:33;100319.38;;;19.78;48.99
48200;BME280;33990;44.602;10.976;2023-11-21T07:10:03;100314.97;;;19.76;49.07
48200;BME280;33990;44.602;10.976;2023-11-21T07:12:31;100319.50;;;19.76;49.17
48200;BME280;33990;44.602;10.976;2023-11-21T07:14:58;100321.22;;;19.77;49.07
48200;BME280;33990;44.602;10.976;2023-11-21T07:17:26;100316.00;;;19.75;48.99
48200;BME280;33990;44.602;10.976;2023-11-21T07:19:53;100318.66;;;19.75;49.15
48200;BME280;33990;44.602;10.976;2023-11-21T07:22:22;100321.34;;;19.75;49.18
48200;BME280;33990;44.602;10.976;2023-11-21T07:24:50;100335.78;;;19.74;49.23
48200;BME280;33990;44.602;10.976;2023-11-21T07:27:20;100342.84;;;19.75;49.08
48200;BME280;33990;44.602;10.976;2023-11-21T07:29:47;100353.59;;;19.75;49.07
48200;BME280;33990;44.602;10.976;2023-11-21T07:32:15;100347.38;;;19.75;49.13
48200;BME280;33990;44.602;10.976;2023-11-21T07:34:43;100334.94;;;19.74;48.94
48200;BME280;33990;44.602;10.976;2023-11-21T07:37:11;100343.00;;;19.74;49.10
48200;BME280;33990;44.602;10.976;2023-11-21T07:39:38;100343.00;;;19.74;49.04
48200;BME280;33990;44.602;10.976;2023-11-21T07:42:09;100344.00;;;19.73;49.21
48200;BME280;33990;44.602;10.976;2023-11-21T07:44:38;100341.31;;;19.73;49.12
48200;BME280;33990;44.602;10.976;2023-11-21T07:47:05;100342.16;;;19.73;49.29
48200;BME280;33990;44.602;10.976;2023-11-21T07:49:33;100345.81;;;19.72;49.40
48200;BME280;33990;44.602;10.976;2023-11-21T07:52:00;100346.53;;;19.74;49.28
48200;BME280;33990;44.602;10.976;2023-11-21T07:54:27;100352.06;;;19.73;49.31
48200;BME280;33990;44.602;10.976;2023-11-21T07:56:55;100352.06;;;19.73;49.41
48200;BME280;33990;44.602;10.976;2023-11-21T07:59:22;100350.34;;;19.72;49.38
48200;BME280;33990;44.602;10.976;2023-11-21T08:01:49;100354.88;;;19.71;49.45
48200;BME280;33990;44.602;10.976;2023-11-21T08:04:17;100345.97;;;19.71;49.26
48200;BME280;33990;44.602;10.976;2023-11-21T08:06:44;100347.66;;;19.72;49.43
48200;BME280;33990;44.602;10.976;2023-11-21T08:09:11;100342.28;;;19.72;49.36
48200;BME280;33990;44.602;10.976;2023-11-21T08:11:39;100338.06;;;19.69;49.57
48200;BME280;33990;44.602;10.976;2023-11-21T08:14:07;100343.44;;;19.69;49.40
48200;BME280;33990;44.602;10.976;2023-11-21T08:16:34;100339.91;;;19.69;49.38
48200;BME280;33990;44.602;10.976;2023-11-21T08:19:01;100340.88;;;19.68;49.50
48200;BME280;33990;44.602;10.976;2023-11-21T08:21:30;100339.03;;;19.68;49.25
48200;BME280;33990;44.602;10.976;2023-11-21T08:23:58;100343.56;;;19.68;49.52
48200;BME280;33990;44.602;10.976;2023-11-21T08:26:26;100343.56;;;19.68;49.58
48200;BME280;33990;44.602;10.976;2023-11-21T08:28:54;100345.41;;;19.67;49.49
48200;BME280;33990;44.602;10.976;2023-11-21T08:31:25;100338.34;;;19.66;49.52
48200;BME280;33990;44.602;10.976;2023-11-21T08:33:52;100338.34;;;19.66;49.38
48200;BME280;33990;44.602;10.976;2023-11-21T08:36:23;100341.19;;;19.65;49.49
48200;BME280;33990;44.602;10.976;2023-11-21T08:38:51;100345.56;;;19.66;49.28
48200;BME280;33990;44.602;10.976;2023-11-21T08:41:22;100348.22;;;19.56;49.29
48200;BME280;33990;44.602;10.976;2023-11-21T08:43:50;100341.53;;;19.33;49.38
48200;BME280;33990;44.602;10.976;2023-11-21T08:46:18;100346.50;;;19.08;49.89
48200;BME280;33990;44.602;10.976;2023-11-21T08:48:47;100352.28;;;18.84;50.20
48200;BME280;33990;44.602;10.976;2023-11-21T08:51:14;100348.28;;;18.69;50.49
48200;BME280;33990;44.602;10.976;2023-11-21T08:53:41;100351.22;;;18.56;50.89
48200;BME280;33990;44.602;10.976;2023-11-21T08:56:15;100351.59;;;18.42;51.21
48200;BME280;33990;44.602;10.976;2023-11-21T08:58:42;100359.16;;;18.27;51.58
48200;BME280;33990;44.602;10.976;2023-11-21T09:01:10;100367.31;;;18.16;51.81
48200;BME280;33990;44.602;10.976;2023-11-21T09:03:39;100359.38;;;18.04;52.08
48200;BME280;33990;44.602;10.976;2023-11-21T09:06:07;100356.94;;;17.92;52.38
48200;BME280;33990;44.602;10.976;2023-11-21T09:08:37;100361.25;;;17.83;52.79
48200;BME280;33990;44.602;10.976;2023-11-21T09:11:05;100351.28;;;17.74;52.81
48200;BME280;33990;44.602;10.976;2023-11-21T09:13:34;100355.38;;;17.68;53.10
48200;BME280;33990;44.602;10.976;2023-11-21T09:16:02;100360.03;;;17.66;53.17
48200;BME280;33990;44.602;10.976;2023-11-21T09:18:29;100368.06;;;17.66;53.15
48200;BME280;33990;44.602;10.976;2023-11-21T09:20:58;100374.50;;;17.64;53.34
48200;BME280;33990;44.602;10.976;2023-11-21T09:23:25;100367.81;;;17.58;53.68
48200;BME280;33990;44.602;10.976;2023-11-21T09:25:53;100366.69;;;17.51;53.91
48200;BME280;33990;44.602;10.976;2023-11-21T09:28:23;100360.84;;;17.46;54.07
48200;BME280;33990;44.602;10.976;2023-11-21T09:30:51;100363.81;;;17.43;54.19
48200;BME280;33990;44.602;10.976;2023-11-21T09:33:18;100362.25;;;17.40;54.28
48200;BME280;33990;44.602;10.976;2023-11-21T09:35:46;100368.44;;;17.41;54.36
48200;BME280;33990;44.602;10.976;2023-11-21T09:38:14;100366.00;;;17.38;54.49
48200;BME280;33990;44.602;10.976;2023-11-21T09:40:42;100369.94;;;17.34;54.76
48200;BME280;33990;44.602;10.976;2023-11-21T09:43:17;100364.22;;;17.38;54.68
48200;BME280;33990;44.602;10.976;2023-11-21T09:45:59;100367.97;;;17.57;54.28
48200;BME280;33990;44.602;10.976;2023-11-21T09:48:27;100369.19;;;17.73;53.80
48200;BME280;33990;44.602;10.976;2023-11-21T09:50:57;100364.22;;;17.90;53.41
48200;BME280;33990;44.602;10.976;2023-11-21T09:53:26;100355.97;;;18.02;52.98
48200;BME280;33990;44.602;10.976;2023-11-21T09:55:57;100345.16;;;18.14;52.81
48200;BME280;33990;44.602;10.976;2023-11-21T09:58:24;100336.31;;;18.23;52.50
48200;BME280;33990;44.602;10.976;2023-11-21T10:00:54;100319.53;;;18.31;52.40
48200;BME280;33990;44.602;10.976;2023-11-21T10:03:24;100309.84;;;18.39;52.12
48200;BME280;33990;44.602;10.976;2023-11-21T10:05:53;100309.13;;;18.47;52.12
48200;BME280;33990;44.602;10.976;2023-11-21T10:08:22;100313.13;;;18.52;51.76
48200;BME280;33990;44.602;10.976;2023-11-21T10:10:53;100318.91;;;18.58;51.68
48200;BME280;33990;44.602;10.976;2023-11-21T10:13:21;100318.47;;;18.62;51.46
48200;BME280;33990;44.602;10.976;2023-11-21T10:15:51;100310.16;;;18.65;51.40
48200;BME280;33990;44.602;10.976;2023-11-21T10:18:19;100312.44;;;18.70;51.25
48200;BME280;33990;44.602;10.976;2023-11-21T10:20:46;100307.66;;;18.73;51.10
48200;BME280;33990;44.602;10.976;2023-11-21T10:23:20;100310.06;;;18.76;51.28
48200;BME280;33990;44.602;10.976;2023-11-21T10:25:51;100300.03;;;18.78;51.12
48200;BME280;33990;44.602;10.976;2023-11-21T10:28:20;100303.28;;;18.82;50.90
48200;BME280;33990;44.602;10.976;2023-11-21T10:30:48;100310.22;;;18.85;50.90
48200;BME280;33990;44.602;10.976;2023-11-21T10:33:16;100322.63;;;18.86;50.89
48200;BME280;33990;44.602;10.976;2023-11-21T10:35:45;100329.53;;;18.88;50.76
48200;BME280;33990;44.602;10.976;2023-11-21T10:38:18;100319.66;;;18.89;50.89
48200;BME280;33990;44.602;10.976;2023-11-21T10:40:48;100325.72;;;18.91;50.79
48200;BME280;33990;44.602;10.976;2023-11-21T10:43:17;100326.44;;;18.93;50.63
48200;BME280;33990;44.602;10.976;2023-11-21T10:45:45;100323.59;;;18.94;50.87
48200;BME280;33990;44.602;10.976;2023-11-21T10:48:14;100311.88;;;18.95;50.67
48200;BME280;33990;44.602;10.976;2023-11-21T10:50:46;100310.06;;;18.96;50.60
48200;BME280;33990;44.602;10.976;2023-11-21T10:53:14;100313.44;;;18.98;50.55
48200;BME280;33990;44.602;10.976;2023-11-21T10:55:42;100310.75;;;18.98;50.40
48200;BME280;33990;44.602;10.976;2023-11-21T10:58:13;100309.75;;;18.99;50.47
48200;BME280;33990;44.602;10.976;2023-11-21T11:00:41;100304.28;;;19.00;50.45
48200;BME280;33990;44.602;10.976;2023-11-21T11:03:10;100294.50;;;18.99;50.44
48200;BME280;33990;44.602;10.976;2023-11-21T11:05:44;100297.91;;;19.01;50.51
48200;BME280;33990;44.602;10.976;2023-11-21T11:08:23;100296.91;;;19.02;50.49
48200;BME280;33990;44.602;10.976;2023-11-21T11:10:55;100306.81;;;19.02;50.41
48200;BME280;33990;44.602;10.976;2023-11-21T11:13:23;100295.06;;;19.03;50.42
48200;BME280;33990;44.602;10.976;2023-11-21T11:15:57;100292.38;;;19.03;50.48
48200;BME280;33990;44.602;10.976;2023-11-21T11:18:30;100294.09;;;19.04;50.17
48200;BME280;33990;44.602;10.976;2023-11-21T11:27:15;100290.44;;;19.05;50.15
48200;BME280;33990;44.602;10.976;2023-11-21T11:36:06;100307.22;;;19.07;50.22
48200;BME280;33990;44.602;10.976;2023-11-21T11:38:38;100315.25;;;19.07;50.24
48200;BME280;33990;44.602;10.976;2023-11-21T11:41:07;100299.16;;;19.07;50.24
48200;BME280;33990;44.602;10.976;2023-11-21T11:43:36;100278.53;;;19.08;50.30
48200;BME280;33990;44.602;10.976;2023-11-21T11:46:12;100273.19;;;19.08;50.18
48200;BME280;33990;44.602;10.976;2023-11-21T11:48:43;100265.00;;;19.09;50.14
48200;BME280;33990;44.602;10.976;2023-11-21T11:51:15;100275.75;;;19.09;50.08
48200;BME280;33990;44.602;10.976;2023-11-21T11:53:48;100270.38;;;19.09;50.22
48200;BME280;33990;44.602;10.976;2023-11-21T11:56:29;100279.25;;;19.10;50.06
48200;BME280;33990;44.602;10.976;2023-11-21T11:59:02;100279.94;;;19.12;50.06
48200;BME280;33990;44.602;10.976;2023-11-21T12:01:33;100281.78;;;19.11;50.01
48200;BME280;33990;44.602;10.976;2023-11-21T12:07:01;100280.81;;;19.12;50.04
48200;BME280;33990;44.602;10.976;2023-11-21T12:09:31;100276.28;;;19.13;50.20
48200;BME280;33990;44.602;10.976;2023-11-21T12:11:59;100269.94;;;19.14;50.25
48200;BME280;33990;44.602;10.976;2023-11-21T12:14:27;100271.78;;;19.13;50.44
48200;BME280;33990;44.602;10.976;2023-11-21T12:16:56;100268.94;;;19.15;50.46
48200;BME280;33990;44.602;10.976;2023-11-21T12:19:23;100270.78;;;19.14;50.42
48200;BME280;33990;44.602;10.976;2023-11-21T12:21:51;100280.38;;;19.17;50.47
48200;BME280;33990;44.602;10.976;2023-11-21T12:24:19;100285.75;;;19.17;50.37
48200;BME280;33990;44.602;10.976;2023-11-21T12:26:46;100275.03;;;19.17;50.38
48200;BME280;33990;44.602;10.976;2023-11-21T12:29:13;100272.34;;;19.17;50.39
48200;BME280;33990;44.602;10.976;2023-11-21T12:31:41;100271.34;;;19.18;50.44
48200;BME280;33990;44.602;10.976;2023-11-21T12:34:08;100270.34;;;19.19;50.53
48200;BME280;33990;44.602;10.976;2023-11-21T12:36:39;100272.19;;;19.18;50.58
48200;BME280;33990;44.602;10.976;2023-11-21T12:39:07;100263.13;;;19.19;50.83
48200;BME280;33990;44.602;10.976;2023-11-21T12:41:36;100264.97;;;19.19;51.01
48200;BME280;33990;44.602;10.976;2023-11-21T12:44:04;100258.59;;;19.20;51.07
48200;BME280;33990;44.602;10.976;2023-11-21T12:46:41;100268.38;;;19.21;51.31
48200;BME280;33990;44.602;10.976;2023-11-21T12:49:10;100255.91;;;19.20;51.22
48200;BME280;33990;44.602;10.976;2023-11-21T12:51:45;100266.53;;;19.21;51.47
48200;BME280;33990;44.602;10.976;2023-11-21T12:54:14;100263.00;;;19.21;51.70
48200;BME280;33990;44.602;10.976;2023-11-21T12:56:45;100253.13;;;19.21;51.70
48200;BME280;33990;44.602;10.976;2023-11-21T12:59:14;100248.59;;;19.22;51.91
48200;BME280;33990;44.602;10.976;2023-11-21T13:01:43;100256.63;;;19.22;51.81
48200;BME280;33990;44.602;10.976;2023-11-21T13:04:12;100258.47;;;19.21;51.73